Time;durP1;ratioP1;P1;durP2;ratioP2;P2;SDS_P1;SDS_P2;PMS_P1;PMS_P2;Temp;Humidity;BMP_temperature;BMP_pressure;BME280_temperature;BME280_humidity;BME280_pressure;Samples;Min_cycle;Max_cycle;Signal;HPM_P1;HPM_P2
2022/03/24 00:00:17;;;;;;;11.27;4.00;;;;;;;-0.86;65.84;101319.75;5010645;28;20098;-73
2022/03/24 00:02:43;;;;;;;12.57;4.00;;;;;;;-0.13;65.24;101421.38;5013423;28;20045;-74
2022/03/24 00:05:11;;;;;;;9.97;4.43;;;;;;;-0.41;65.47;101384.88;5012025;28;20072;-73
2022/03/24 00:07:36;;;;;;;10.30;3.63;;;;;;;-0.25;65.52;101416.06;5012483;28;20034;-75
2022/03/24 00:10:02;;;;;;;9.63;3.50;;;;;;;-0.25;65.09;101388.16;5013199;28;20036;-74
2022/03/24 00:12:27;;;;;;;11.17;3.53;;;;;;;-0.31;65.17;101390.09;5012155;28;20404;-74
2022/03/24 00:14:53;;;;;;;13.43;4.17;;;;;;;-0.21;65.01;101396.94;5013357;28;20044;-73
2022/03/24 00:17:18;;;;;;;10.13;4.37;;;;;;;-0.84;65.38;101318.25;5013487;28;20032;-74
2022/03/24 00:19:43;;;;;;;7.07;2.57;;;;;;;-0.46;65.92;101399.69;5013610;28;20030;-74
2022/03/24 00:22:10;;;;;;;9.83;3.87;;;;;;;-0.83;66.35;101356.44;5013056;28;20040;-75
2022/03/24 00:24:54;;;;;;;11.40;3.57;;;;;;;-0.54;65.63;101358.34;5012319;28;20061;-73
2022/03/24 00:27:19;;;;;;;15.83;4.63;;;;;;;-0.61;65.49;101343.31;5012899;28;20103;-74
2022/03/24 00:29:48;;;;;;;11.20;4.23;;;;;;;-0.23;65.34;101385.75;5013238;28;20545;-74
2022/03/24 00:32:13;;;;;;;15.83;4.20;;;;;;;-0.21;64.85;101382.59;5013157;28;20073;-73
2022/03/24 00:34:39;;;;;;;17.10;8.20;;;;;;;-0.28;65.20;101367.53;5012885;28;20139;-74
2022/03/24 00:37:05;;;;;;;15.43;5.70;;;;;;;-0.05;64.56;101372.25;5012210;28;20885;-74
2022/03/24 00:39:33;;;;;;;15.97;4.70;;;;;;;-0.35;64.92;101322.03;5012318;28;20029;-71
2022/03/24 00:42:07;;;;;;;13.87;6.73;;;;;;;0.19;63.99;101364.22;5012073;28;20033;-74
2022/03/24 00:44:32;;;;;;;10.53;4.33;;;;;;;0.38;62.97;101352.47;5010914;28;20525;-74
2022/03/24 00:46:58;;;;;;;7.20;3.77;;;;;;;0.55;62.62;101356.59;5009642;28;20125;-74
2022/03/24 00:49:23;;;;;;;12.50;4.30;;;;;;;0.72;62.09;101355.56;5011911;28;20070;-74
2022/03/24 00:51:49;;;;;;;8.93;4.00;;;;;;;0.75;61.44;101340.59;5012054;28;20049;-75
2022/03/24 00:54:18;;;;;;;10.63;4.53;;;;;;;0.82;61.33;101323.34;5011980;28;20030;-76
2022/03/24 00:56:45;;;;;;;9.25;3.47;;;;;;;0.79;60.83;101323.97;5010715;28;20042;-75
2022/03/24 00:59:11;;;;;;;14.93;5.60;;;;;;;0.75;60.67;101305.00;5011961;28;20392;-74
2022/03/24 01:01:39;;;;;;;13.73;3.50;;;;;;;0.41;60.45;101284.19;5011686;28;20108;-75
2022/03/24 01:04:06;;;;;;;11.23;3.63;;;;;;;0.56;60.16;101297.41;5011689;28;20488;-76
2022/03/24 01:06:32;;;;;;;13.67;4.40;;;;;;;0.60;60.84;101316.34;5012200;28;20049;-72
2022/03/24 01:08:58;;;;;;;7.87;3.10;;;;;;;0.63;61.15;101330.19;5011822;28;20064;-73
2022/03/24 01:11:24;;;;;;;8.67;2.70;;;;;;;0.39;61.75;101323.78;5011668;28;20026;-74
2022/03/24 01:13:49;;;;;;;9.80;3.33;;;;;;;0.25;62.53;101309.84;5012100;28;20029;-73
2022/03/24 01:16:16;;;;;;;8.77;2.60;;;;;;;0.07;62.32;101288.72;5011486;28;20362;-76
2022/03/24 01:18:41;;;;;;;7.17;2.67;;;;;;;-0.04;62.21;101280.13;5011436;28;20036;-76
2022/03/24 01:21:07;;;;;;;10.97;3.80;;;;;;;0.28;61.79;101293.97;5011466;28;20030;-76
2022/03/24 01:23:33;;;;;;;12.43;3.40;;;;;;;0.39;61.62;101303.47;5016453;28;20168;-74
2022/03/24 01:26:19;;;;;;;9.50;3.47;;;;;;;0.08;62.21;101318.44;5013923;28;20111;-74
2022/03/24 01:28:45;;;;;;;10.23;3.13;;;;;;;-0.07;62.68;101311.94;5030554;28;20389;-73
2022/03/24 01:31:10;;;;;;;6.63;3.07;;;;;;;-0.28;63.28;101291.41;5028483;28;20042;-72
2022/03/24 01:33:39;;;;;;;5.77;2.77;;;;;;;-0.36;63.60;101295.78;5028499;28;20041;-73
2022/03/24 01:36:06;;;;;;;5.72;2.13;;;;;;;-0.20;63.39;101310.81;5028324;28;20061;-75
2022/03/24 01:38:32;;;;;;;12.53;2.80;;;;;;;-0.26;63.13;101292.47;5027119;28;20033;-74
2022/03/24 01:40:58;;;;;;;6.80;2.80;;;;;;;-0.45;62.87;101259.38;5029086;28;20037;-75
2022/03/24 01:43:24;;;;;;;8.43;2.87;;;;;;;-0.63;63.28;101248.41;5028511;28;20506;-75
2022/03/24 01:45:50;;;;;;;6.73;2.73;;;;;;;-0.47;63.50;101300.56;5028852;28;20037;-74
2022/03/24 01:48:16;;;;;;;10.50;3.67;;;;;;;-0.79;64.25;101311.09;5012252;28;20041;-75
2022/03/24 01:50:42;;;;;;;7.87;2.87;;;;;;;-0.85;64.73;101307.25;5028917;28;20033;-75
2022/03/24 01:53:08;;;;;;;10.17;3.20;;;;;;;-0.71;64.63;101284.81;5025994;28;20519;-75
2022/03/24 01:55:34;;;;;;;8.63;2.87;;;;;;;-0.88;64.50;101255.34;5028806;28;20063;-77
2022/03/24 01:58:02;;;;;;;7.80;2.73;;;;;;;-0.73;64.52;101250.84;5027918;28;20144;-78
2022/03/24 02:00:28;;;;;;;10.83;3.20;;;;;;;-0.51;64.57;101280.00;4969053;28;20473;-77
2022/03/24 02:02:54;;;;;;;11.60;3.10;;;;;;;-0.36;64.67;101299.97;4969626;28;20067;-75
2022/03/24 02:05:19;;;;;;;6.90;2.90;;;;;;;-0.35;64.77;101295.03;4970162;28;20109;-76
2022/03/24 02:07:45;;;;;;;11.90;2.77;;;;;;;-0.54;64.74;101254.34;4969699;28;20049;-77
2022/03/24 02:10:11;;;;;;;11.43;3.10;;;;;;;-0.27;64.77;101295.75;4969878;28;20042;-77
2022/03/24 02:12:37;;;;;;;10.77;3.07;;;;;;;-0.36;64.44;101264.44;4969567;28;20532;-77
2022/03/24 02:15:04;;;;;;;11.37;3.70;;;;;;;-0.23;64.60;101292.72;4969886;28;20043;-78
2022/03/24 02:17:30;;;;;;;13.53;3.40;;;;;;;-0.20;64.32;101298.13;4969978;28;20473;-78
2022/03/24 02:19:59;;;;;;;9.23;4.00;;;;;;;-0.13;64.24;101291.06;4969724;28;20047;-77
2022/03/24 02:22:26;;;;;;;9.70;3.38;;;;;;;-0.23;64.13;101290.19;4969810;28;20140;-77
2022/03/24 02:24:52;;;;;;;8.10;2.93;;;;;;;-0.31;63.78;101296.22;4969508;28;20034;-77
2022/03/24 02:27:17;;;;;;;8.90;3.30;;;;;;;-0.38;64.16;101288.78;4969625;28;20517;-76
2022/03/24 02:29:42;;;;;;;12.40;3.43;;;;;;;-0.80;65.33;101278.88;4953268;28;20034;-77
2022/03/24 02:32:11;;;;;;;11.30;3.03;;;;;;;-0.71;65.52;101275.59;5008867;28;20048;-77
2022/03/24 02:34:38;;;;;;;10.10;3.50;;;;;;;-0.47;65.21;101280.28;5042739;28;20484;-76
2022/03/24 02:37:05;;;;;;;11.97;3.27;;;;;;;-0.72;64.91;101229.81;5030929;28;20111;-78
2022/03/24 02:39:31;;;;;;;8.03;2.80;;;;;;;-0.68;65.18;101285.13;5030325;28;20026;-77
2022/03/24 02:41:59;;;;;;;11.77;3.10;;;;;;;-1.00;65.98;101265.19;5030757;28;20412;-76
2022/03/24 02:44:27;;;;;;;12.63;3.27;;;;;;;-0.85;66.33;101288.59;5030745;28;20036;-77
2022/03/24 02:46:54;;;;;;;12.23;3.00;;;;;;;-0.95;65.99;101270.72;5029385;28;20429;-77
2022/03/24 02:49:25;;;;;;;5.57;2.70;;;;;;;-1.34;66.37;101279.69;5034406;28;20034;-77
2022/03/24 02:51:51;;;;;;;8.93;3.17;;;;;;;-1.27;66.54;101282.06;5034571;28;20044;-77
2022/03/24 02:54:18;;;;;;;11.10;3.10;;;;;;;-1.12;66.60;101285.19;5034428;28;20030;-76
2022/03/24 02:56:44;;;;;;;8.93;3.50;;;;;;;-1.05;66.58;101277.41;5034449;28;20084;-77
2022/03/24 02:59:12;;;;;;;11.60;3.27;;;;;;;-0.94;66.05;101273.38;5034733;28;20122;-78
2022/03/24 03:02:02;;;;;;;10.23;3.00;;;;;;;-0.89;65.18;101271.31;5034865;28;20112;-78
2022/03/24 03:04:34;;;;;;;7.00;2.67;;;;;;;-1.18;65.29;101255.09;5032060;28;20048;-75
2022/03/24 03:07:02;;;;;;;7.47;3.20;;;;;;;-1.31;66.74;101273.28;5032213;28;20475;-78
2022/03/24 03:09:28;;;;;;;10.47;2.93;;;;;;;-1.26;66.81;101250.91;5032185;28;20582;-77
2022/03/24 03:11:54;;;;;;;10.67;3.37;;;;;;;-1.04;66.53;101265.66;5032138;28;20116;-75
2022/03/24 03:14:20;;;;;;;6.70;3.27;;;;;;;-1.36;66.23;101217.84;5031891;28;20592;-78
2022/03/24 03:16:46;;;;;;;8.60;3.53;;;;;;;-1.23;66.68;101266.41;5031917;28;20037;-77
2022/03/24 03:19:13;;;;;;;12.23;3.53;;;;;;;-1.26;66.99;101266.09;5031442;28;20049;-77
2022/03/24 03:21:39;;;;;;;8.47;2.87;;;;;;;-1.27;66.70;101256.75;5031771;28;20075;-78
2022/03/24 03:24:06;;;;;;;9.00;3.13;;;;;;;-1.11;66.55;101269.22;5031714;28;20050;-77
2022/03/24 03:26:32;;;;;;;7.13;3.80;;;;;;;-1.06;66.24;101262.06;5031650;28;20413;-78
2022/03/24 03:28:58;;;;;;;10.60;3.57;;;;;;;-1.16;66.38;101263.72;5031467;28;20068;-77
2022/03/24 03:31:23;;;;;;;8.33;3.40;;;;;;;-1.09;65.93;101260.13;5031565;28;20667;-77
2022/03/24 03:33:51;;;;;;;8.97;3.23;;;;;;;-1.08;65.74;101266.13;5031245;28;20033;-77
2022/03/24 03:36:20;;;;;;;8.67;3.03;;;;;;;-1.05;65.55;101257.13;5033574;28;20097;-77
2022/03/24 03:38:46;;;;;;;7.35;3.35;;;;;;;-1.05;65.50;101262.22;5034061;28;20061;-76
2022/03/24 03:41:13;;;;;;;7.87;3.00;;;;;;;-1.05;65.76;101249.53;5033666;28;20034;-75
2022/03/24 03:43:38;;;;;;;9.40;3.00;;;;;;;-0.90;65.59;101257.72;5032557;28;20029;-75
2022/03/24 03:46:04;;;;;;;6.57;3.23;;;;;;;-0.90;65.54;101242.50;5033727;28;20032;-75
2022/03/24 03:48:30;;;;;;;10.53;3.70;;;;;;;-1.05;65.69;101226.72;5033523;28;20566;-75
2022/03/24 03:50:56;;;;;;;13.07;3.37;;;;;;;-0.99;65.83;101241.66;5016010;28;20018;-75
2022/03/24 03:53:23;;;;;;;10.97;3.73;;;;;;;-1.06;66.56;101251.94;5033510;28;20026;-75
2022/03/24 03:55:49;;;;;;;8.73;3.33;;;;;;;-1.03;66.89;101247.19;5033890;28;20032;-75
2022/03/24 03:58:15;;;;;;;7.67;3.27;;;;;;;-0.98;66.75;101233.28;5033191;28;20049;-76
2022/03/24 04:00:53;;;;;;;11.10;4.13;;;;;;;-1.18;65.98;101244.94;5032065;28;20056;-75
2022/03/24 04:03:29;;;;;;;11.87;4.00;;;;;;;-1.65;68.01;101244.63;5023585;28;20476;-74
2022/03/24 04:05:57;;;;;;;12.80;4.17;;;;;;;-1.47;68.12;101237.97;5013627;28;20061;-75
2022/03/24 04:08:23;;;;;;;8.30;3.60;;;;;;;-1.56;67.89;101224.38;5013451;28;20412;-75
2022/03/24 04:10:49;;;;;;;8.27;3.43;;;;;;;-1.50;68.26;101245.25;5013356;28;20026;-75
2022/03/24 04:13:17;;;;;;;12.33;4.00;;;;;;;-1.88;68.26;101186.72;5012895;28;20037;-75
2022/03/24 04:15:43;;;;;;;8.63;3.20;;;;;;;-1.55;68.66;101250.63;5013402;28;20549;-75
2022/03/24 04:18:09;;;;;;;10.23;3.00;;;;;;;-1.62;68.79;101228.84;5013299;28;20038;-74
2022/03/24 04:20:36;;;;;;;12.40;3.37;;;;;;;-1.44;68.66;101249.16;5013410;28;20034;-74
2022/03/24 04:23:04;;;;;;;7.40;3.13;;;;;;;-1.54;68.70;101243.16;5011949;28;20499;-74
2022/03/24 04:25:29;;;;;;;10.73;3.50;;;;;;;-1.53;68.75;101227.22;5013477;28;20112;-75
2022/03/24 04:27:55;;;;;;;10.27;3.23;;;;;;;-1.34;68.62;101234.97;5012944;28;20141;-75
2022/03/24 04:30:21;;;;;;;13.40;4.40;;;;;;;-1.25;68.24;101236.63;5013244;28;20428;-74
2022/03/24 04:32:49;;;;;;;10.37;3.90;;;;;;;-1.44;68.40;101199.38;5013186;28;20144;-74
2022/03/24 04:35:16;;;;;;;16.87;4.67;;;;;;;-1.16;68.50;101234.94;5012814;28;20488;-74
2022/03/24 04:37:42;;;;;;;16.57;4.80;;;;;;;-1.20;67.81;101233.75;5013077;28;20112;-75
2022/03/24 04:40:13;;;;;;;7.77;3.53;;;;;;;-1.30;67.62;101223.50;5013217;28;20022;-74
2022/03/24 04:42:39;;;;;;;9.30;3.60;;;;;;;-1.45;68.09;101227.09;5012067;28;20040;-74
2022/03/24 04:45:06;;;;;;;21.47;6.97;;;;;;;-1.43;68.47;101208.75;5012433;28;20044;-74
2022/03/24 04:47:32;;;;;;;23.23;9.40;;;;;;;-1.24;67.85;101233.34;5012761;28;20034;-74
2022/03/24 04:49:58;;;;;;;33.53;13.33;;;;;;;-1.23;67.99;101230.06;5013167;28;20034;-74
2022/03/24 04:52:23;;;;;;;18.17;8.03;;;;;;;-1.31;68.20;101222.63;5012733;28;20037;-74
2022/03/24 04:54:50;;;;;;;10.03;4.27;;;;;;;-1.33;68.43;101231.69;5012314;28;20548;-74
2022/03/24 04:57:15;;;;;;;16.53;4.40;;;;;;;-1.32;68.85;101228.41;5012571;28;20475;-71
2022/03/24 04:59:43;;;;;;;10.73;3.60;;;;;;;-1.19;68.73;101227.06;5012796;28;20034;-73
2022/03/24 05:02:12;;;;;;;12.07;3.70;;;;;;;-1.16;68.63;101220.66;5012629;28;20061;-74
2022/03/24 05:04:37;;;;;;;12.40;4.75;;;;;;;-1.14;69.24;101220.78;5012696;28;20026;-74
2022/03/24 05:07:03;;;;;;;24.43;6.80;;;;;;;-1.06;69.32;101219.00;5012645;28;20037;-74
2022/03/24 05:09:29;;;;;;;19.23;8.33;;;;;;;-1.00;69.32;101206.91;5012131;28;20052;-74
2022/03/24 05:11:54;;;;;;;11.73;4.87;;;;;;;-0.93;69.24;101216.00;5011681;28;20038;-73
2022/03/24 05:14:20;;;;;;;12.20;5.60;;;;;;;-0.93;69.43;101223.59;5012226;28;20026;-74
2022/03/24 05:16:46;;;;;;;18.87;8.97;;;;;;;-0.85;69.61;101210.00;5011889;28;20025;-76
2022/03/24 05:19:13;;;;;;;16.80;7.20;;;;;;;-0.86;69.71;101221.78;5012131;28;20033;-74
2022/03/24 05:21:38;;;;;;;11.43;5.20;;;;;;;-0.84;69.04;101207.59;5012184;28;20030;-75
2022/03/24 05:24:04;;;;;;;11.80;4.90;;;;;;;-0.66;69.15;101217.72;5012135;28;20032;-75
2022/03/24 05:26:30;;;;;;;14.57;3.80;;;;;;;-0.68;68.83;101201.44;5012006;28;20403;-75
2022/03/24 05:28:55;;;;;;;11.37;4.00;;;;;;;-0.48;68.58;101223.59;5012043;28;20477;-75
2022/03/24 05:31:24;;;;;;;10.50;4.30;;;;;;;-0.47;68.86;101220.31;5012172;28;20040;-76
2022/03/24 05:33:50;;;;;;;15.18;4.72;;;;;;;-0.84;69.16;101163.63;5012006;28;20037;-75
2022/03/24 05:36:15;;;;;;;12.70;3.80;;;;;;;-0.37;69.98;101217.00;5011767;28;20029;-74
2022/03/24 05:38:41;;;;;;;11.67;4.07;;;;;;;-0.35;70.72;101220.53;5011420;28;20026;-74
2022/03/24 05:41:08;;;;;;;12.13;3.97;;;;;;;-0.29;70.15;101221.09;5011576;28;20038;-74
2022/03/24 05:43:34;;;;;;;11.87;4.03;;;;;;;-0.27;70.21;101217.09;5011327;28;20038;-74
2022/03/24 05:45:59;;;;;;;7.53;3.43;;;;;;;-0.36;70.31;101203.56;5009436;28;20575;-74
2022/03/24 05:48:25;;;;;;;8.77;3.77;;;;;;;-0.23;70.68;101219.13;5011435;28;20459;-74
2022/03/24 05:50:50;;;;;;;12.57;4.20;;;;;;;-0.08;69.93;101218.78;5020102;28;20034;-73
2022/03/24 05:53:16;;;;;;;15.43;4.53;;;;;;;-0.30;69.55;101155.00;5010107;28;20484;-74
2022/03/24 05:55:42;;;;;;;15.13;4.27;;;;;;;0.08;69.58;101196.56;5011373;28;20026;-73
2022/03/24 05:58:08;;;;;;;15.70;5.17;;;;;;;0.22;68.89;101207.97;5011743;28;20129;-74
2022/03/24 06:00:38;;;;;;;23.17;9.97;;;;;;;0.22;68.64;101181.69;5011492;28;20381;-74
2022/03/24 06:03:04;;;;;;;;;;;;;;;0.60;68.25;101214.72;5011665;28;20030;-72
2022/03/24 06:05:30;;;;;;;15.33;5.63;;;;;;;0.69;68.38;101227.34;5012380;28;19932;-74
2022/03/24 06:07:56;;;;;;;14.73;6.27;;;;;;;0.69;67.70;101191.75;5020823;28;20030;-72
2022/03/24 06:10:22;;;;;;;12.63;5.40;;;;;;;0.62;67.57;101159.81;5022928;28;20456;-74
2022/03/24 06:12:47;;;;;;;12.83;5.63;;;;;;;1.08;67.46;101212.13;5029615;28;20026;-74
2022/03/24 06:15:13;;;;;;;12.63;5.50;;;;;;;0.96;67.26;101163.66;5030122;28;20450;-74
2022/03/24 06:17:39;;;;;;;12.67;5.63;;;;;;;1.37;67.08;101206.13;5029983;28;20037;-74
2022/03/24 06:20:06;;;;;;;13.50;5.93;;;;;;;1.48;66.96;101203.59;5029948;28;20056;-74
2022/03/24 06:22:40;;;;;;;20.73;6.73;;;;;;;1.73;66.77;101207.47;5027574;28;20030;-74
2022/03/24 06:25:06;;;;;;;14.67;5.20;;;;;;;1.84;66.75;101210.03;5018675;28;20064;-74
2022/03/24 06:27:31;;;;;;;15.90;5.70;;;;;;;2.04;66.15;101201.50;5026626;28;20033;-73
2022/03/24 06:29:57;;;;;;;13.67;5.87;;;;;;;1.88;64.76;101151.84;5021346;28;20034;-74
2022/03/24 06:32:22;;;;;;;14.70;6.10;;;;;;;2.07;64.73;101151.72;5027437;28;20099;-74
2022/03/24 06:35:08;;;;;;;14.10;5.80;;;;;;;2.42;63.99;101181.72;5027372;28;20543;-75
2022/03/24 06:37:40;;;;;;;16.53;6.00;;;;;;;2.47;63.28;101151.50;4986802;28;20041;-74
2022/03/24 06:40:08;;;;;;;11.63;5.17;;;;;;;2.84;63.53;101182.50;4988152;28;20037;-75
2022/03/24 06:42:33;;;;;;;16.70;5.93;;;;;;;2.81;62.94;101149.09;4987209;28;20117;-74
2022/03/24 06:44:59;;;;;;;14.10;4.87;;;;;;;3.22;62.09;101181.16;4988194;28;20501;-74
2022/03/24 06:47:24;;;;;;;15.83;5.70;;;;;;;3.30;62.83;101152.03;4971489;28;20035;-74
2022/03/24 06:49:50;;;;;;;18.10;6.00;;;;;;;3.57;62.55;101175.34;4987977;28;20038;-74
2022/03/24 06:52:15;;;;;;;14.70;5.37;;;;;;;3.58;61.99;101155.78;4987648;28;20071;-74
2022/03/24 06:54:42;;;;;;;16.87;6.13;;;;;;;3.82;61.58;101172.09;4987841;28;20464;-74
2022/03/24 06:57:14;;;;;;;21.83;7.77;;;;;;;3.82;61.90;101136.34;4971326;28;20594;-74
2022/03/24 06:59:39;;;;;;;16.43;5.83;;;;;;;4.21;61.02;101175.84;4987973;28;20512;-75
2022/03/24 07:02:06;;;;;;;13.57;5.87;;;;;;;4.30;60.18;101144.94;4987253;28;20030;-74
2022/03/24 07:04:32;;;;;;;11.53;5.23;;;;;;;4.49;60.13;101168.53;4999487;28;20046;-74
2022/03/24 07:06:57;;;;;;;14.30;5.53;;;;;;;4.68;59.36;101162.19;5027040;28;20025;-74
2022/03/24 07:09:22;;;;;;;15.93;6.10;;;;;;;4.73;59.10;101160.84;5020858;28;20056;-74
2022/03/24 07:11:48;;;;;;;12.13;5.60;;;;;;;4.60;59.16;101101.91;5028322;28;20442;-72
2022/03/24 07:14:13;;;;;;;12.77;5.57;;;;;;;5.05;58.86;101138.31;5029933;28;20056;-75
2022/03/24 07:16:39;;;;;;;20.30;7.70;;;;;;;5.42;58.65;101149.44;5029485;28;20034;-74
2022/03/24 07:19:06;;;;;;;14.55;6.10;;;;;;;5.53;58.80;101151.84;5029575;28;20026;-75
2022/03/24 07:21:33;;;;;;;12.57;5.80;;;;;;;5.78;57.67;101149.25;5029681;28;20036;-71
2022/03/24 07:23:59;;;;;;;12.50;5.90;;;;;;;5.91;57.71;101149.31;5029887;28;20111;-74
2022/03/24 07:26:25;;;;;;;18.40;7.05;;;;;;;6.17;57.39;101132.25;5029527;28;20061;-74
2022/03/24 07:28:50;;;;;;;17.65;7.20;;;;;;;6.19;56.37;101135.75;5029045;28;20044;-74
2022/03/24 07:31:19;;;;;;;15.93;6.68;;;;;;;6.22;56.80;101125.72;5029214;28;20045;-73
2022/03/24 07:33:45;;;;;;;14.30;6.40;;;;;;;6.21;57.36;101102.56;5015544;28;20022;-74
2022/03/24 07:36:11;;;;;;;12.45;7.00;;;;;;;6.41;56.23;101116.66;5027027;28;20551;-71
2022/03/24 07:38:37;;;;;;;10.00;5.70;;;;;;;6.53;56.37;101090.88;5033034;28;20072;-74
2022/03/24 07:41:02;;;;;;;12.98;5.88;;;;;;;7.00;56.43;101115.19;5032587;28;20049;-77
2022/03/24 07:43:28;;;;;;;12.73;5.40;;;;;;;7.22;53.15;101082.31;5030660;28;20033;-74
2022/03/24 07:45:54;;;;;;;11.73;5.50;;;;;;;7.61;51.62;101057.25;5030939;28;20025;-78
2022/03/24 07:48:25;;;;;;;10.98;5.50;;;;;;;8.15;50.78;101108.28;5032763;28;20032;-74
2022/03/24 07:50:53;;;;;;;12.95;4.88;;;;;;;8.35;52.41;101093.06;5023966;28;20488;-73
2022/03/24 07:53:28;;;;;;;14.43;5.40;;;;;;;8.56;51.18;101091.75;5029671;28;20033;-75
2022/03/24 07:55:55;;;;;;;10.15;5.15;;;;;;;8.78;49.88;101087.75;5032824;28;20029;-75
2022/03/24 07:58:21;;;;;;;14.18;6.05;;;;;;;9.09;49.49;101089.41;5032403;28;20152;-75
2022/03/24 08:00:47;;;;;;;13.48;6.75;;;;;;;9.42;49.00;101094.56;5031249;28;20026;-75
2022/03/24 08:03:18;;;;;;;11.80;5.38;;;;;;;9.78;48.36;101086.03;5031879;28;20060;-74
2022/03/24 08:05:44;;;;;;;10.48;5.30;;;;;;;9.93;47.54;101073.00;5032632;28;20105;-75
2022/03/24 08:08:11;;;;;;;11.27;5.40;;;;;;;10.15;48.93;101075.81;5032528;28;20029;-73
2022/03/24 08:10:41;;;;;;;14.55;6.30;;;;;;;10.34;45.46;101068.94;5032081;28;20052;-72
2022/03/24 08:13:08;;;;;;;11.93;6.53;;;;;;;10.46;45.97;101048.91;5032078;28;20021;-72
2022/03/24 08:15:35;;;;;;;11.68;6.10;;;;;;;10.84;44.29;101066.97;5032533;28;20037;-73
2022/03/24 08:18:01;;;;;;;20.17;6.38;;;;;;;11.14;41.58;101057.16;5032594;28;20071;-73
2022/03/24 08:20:29;;;;;;;12.98;6.35;;;;;;;11.23;42.22;101055.81;5026683;28;20049;-72
2022/03/24 08:22:54;;;;;;;12.43;6.38;;;;;;;11.19;42.73;100999.59;5013080;28;20053;-72
2022/03/24 08:25:20;;;;;;;13.77;6.20;;;;;;;11.57;43.70;101023.63;5012954;28;20061;-72
2022/03/24 08:27:46;;;;;;;13.48;6.53;;;;;;;11.85;40.72;101032.50;5014794;28;20096;-73
2022/03/24 08:30:12;;;;;;;11.15;6.65;;;;;;;11.92;40.73;101016.41;5029829;28;20480;-73
2022/03/24 08:32:39;;;;;;;9.27;5.30;;;;;;;12.26;40.08;101036.81;5031953;28;20037;-73
2022/03/24 08:35:05;;;;;;;12.25;5.97;;;;;;;12.42;39.33;101029.63;5035523;28;20041;-73
2022/03/24 08:37:30;;;;;;;12.13;5.63;;;;;;;12.39;42.84;101014.84;5033392;28;20099;-73
2022/03/24 08:39:57;;;;;;;12.95;6.35;;;;;;;12.69;41.10;101022.00;5021277;28;20042;-73
2022/03/24 08:42:23;;;;;;;18.25;6.35;;;;;;;12.69;39.82;101024.59;5010492;28;20050;-74
2022/03/24 08:44:49;;;;;;;17.35;8.05;;;;;;;12.79;40.13;101016.31;5012557;28;20584;-74
2022/03/24 08:47:15;;;;;;;13.82;6.00;;;;;;;12.95;38.49;101011.72;5012477;28;20029;-74
2022/03/24 08:49:41;;;;;;;9.45;5.43;;;;;;;13.13;38.87;100990.75;5012655;28;20053;-73
2022/03/24 08:52:08;;;;;;;20.52;6.43;;;;;;;13.47;37.94;101006.59;5012873;28;20240;-73
2022/03/24 08:54:34;;;;;;;15.38;6.72;;;;;;;13.53;38.31;101004.22;5010022;28;20048;-74
2022/03/24 08:57:25;;;;;;;9.95;5.78;;;;;;;13.64;37.73;100982.09;5009649;28;20069;-73
2022/03/24 08:59:52;;;;;;;11.85;5.85;;;;;;;13.87;36.52;100997.56;4990235;28;20057;-74
2022/03/24 09:02:17;;;;;;;12.90;6.72;;;;;;;13.83;36.86;100993.97;4990367;28;20080;-73
2022/03/24 09:04:43;;;;;;;11.15;7.20;;;;;;;13.87;37.83;100989.78;4990662;28;20419;-73
2022/03/24 09:07:08;;;;;;;13.55;6.90;;;;;;;13.88;36.65;100982.03;4990106;28;20397;-71
2022/03/24 09:09:34;;;;;;;13.30;6.80;;;;;;;14.03;37.96;100989.41;4990214;28;20508;-70
2022/03/24 09:11:59;;;;;;;13.75;6.45;;;;;;;13.96;36.41;100945.91;4990055;28;20038;-73
2022/03/24 09:14:24;;;;;;;11.68;6.55;;;;;;;14.36;37.07;100977.41;4990200;28;20042;-71
2022/03/24 09:16:50;;;;;;;18.80;8.13;;;;;;;14.45;35.83;100967.28;4990017;28;20053;-70
2022/03/24 09:19:16;;;;;;;15.40;6.90;;;;;;;14.51;36.27;100972.66;4990321;28;20046;-73
2022/03/24 09:21:42;;;;;;;12.23;6.50;;;;;;;14.40;35.94;100896.13;4989769;28;20053;-72
2022/03/24 09:24:08;;;;;;;13.00;7.07;;;;;;;15.04;32.53;100963.72;4992561;28;20485;-72
2022/03/24 09:26:36;;;;;;;13.73;7.57;;;;;;;14.93;32.19;100947.84;4992814;28;20037;-73
2022/03/24 09:29:02;;;;;;;11.35;6.72;;;;;;;15.16;32.81;100961.44;5025103;28;20452;-70
2022/03/24 09:31:28;;;;;;;13.45;6.88;;;;;;;15.31;34.55;100971.34;5031208;28;20048;-74
2022/03/24 09:33:53;;;;;;;14.38;7.10;;;;;;;15.31;31.58;100957.47;5031757;28;20457;-70
2022/03/24 09:36:18;;;;;;;15.70;7.45;;;;;;;15.38;30.62;100954.19;5031362;28;20028;-72
2022/03/24 09:38:44;;;;;;;11.88;7.10;;;;;;;15.42;32.45;100956.03;5031552;28;20033;-73
2022/03/24 09:41:13;;;;;;;17.40;7.68;;;;;;;15.60;32.31;100950.41;5031435;28;20095;-70
2022/03/24 09:43:41;;;;;;;17.90;7.87;;;;;;;15.80;31.74;100936.97;5031532;28;20443;-72
2022/03/24 09:46:08;;;;;;;13.82;7.53;;;;;;;15.96;31.09;100940.84;5031104;28;20507;-71
2022/03/24 09:48:33;;;;;;;13.07;7.30;;;;;;;16.13;31.84;100944.69;5031184;28;20068;-74
2022/03/24 09:50:59;;;;;;;14.82;7.40;;;;;;;16.10;31.05;100931.63;5028723;28;20065;-74
2022/03/24 09:53:24;;;;;;;13.25;7.85;;;;;;;16.20;29.51;100922.28;5031356;28;20404;-69
2022/03/24 09:55:50;;;;;;;16.90;7.60;;;;;;;16.21;31.65;100899.69;5031284;28;20021;-73
2022/03/24 09:58:16;;;;;;;14.90;7.20;;;;;;;16.55;32.44;100922.09;5031213;28;20115;-70
2022/03/24 10:00:42;;;;;;;14.57;7.80;;;;;;;16.38;29.02;100918.28;5031334;28;20457;-70
2022/03/24 10:03:21;;;;;;;14.85;7.65;;;;;;;16.66;31.69;100924.94;5031096;28;20025;-73
2022/03/24 10:06:00;;;;;;;13.82;7.38;;;;;;;16.62;28.35;100910.06;5031085;28;20108;-71
2022/03/24 10:08:27;;;;;;;14.13;7.82;;;;;;;16.79;28.90;100907.78;5031281;28;20021;-72
2022/03/24 10:11:07;;;;;;;13.70;8.05;;;;;;;16.75;28.61;100906.84;5031106;28;20033;-72
2022/03/24 10:13:49;;;;;;;18.60;8.63;;;;;;;16.76;28.15;100881.63;5030952;28;20026;-72
2022/03/24 10:16:33;;;;;;;14.73;8.02;;;;;;;17.01;28.08;100902.97;5031007;28;20132;-73
2022/03/24 10:19:01;;;;;;;15.20;8.43;;;;;;;16.91;29.24;100858.50;5031004;28;20017;-72
2022/03/24 10:21:31;;;;;;;14.88;8.60;;;;;;;17.16;27.57;100882.38;5030859;28;20021;-73
2022/03/24 10:24:00;;;;;;;24.73;9.05;;;;;;;17.04;27.38;100843.03;5030570;28;20056;-72
2022/03/24 10:26:47;;;;;;;24.45;10.55;;;;;;;17.52;30.27;100888.13;5031017;28;20494;-72
2022/03/24 10:29:21;;;;;;;15.93;9.27;;;;;;;17.59;29.50;100885.63;5030820;28;20037;-72
2022/03/24 10:31:55;;;;;;;18.00;10.32;;;;;;;17.70;27.91;100884.94;5030349;28;20033;-72
2022/03/24 10:34:41;;;;;;;15.55;8.40;;;;;;;17.57;26.67;100879.53;5030088;28;20099;-70
2022/03/24 10:37:12;;;;;;;14.10;9.18;;;;;;;17.67;28.71;100874.44;5030474;28;20053;-72
2022/03/24 10:39:53;;;;;;;15.27;8.70;;;;;;;17.85;26.34;100871.22;5028369;28;20033;-69
2022/03/24 10:42:20;;;;;;;18.15;9.10;;;;;;;17.98;27.99;100864.44;5030748;28;20028;-70
2022/03/24 10:45:00;;;;;;;15.45;9.20;;;;;;;17.80;27.63;100831.97;5030734;28;20176;-73
2022/03/24 10:47:38;;;;;;;14.32;8.02;;;;;;;18.01;27.92;100838.38;5030626;28;20039;-70
2022/03/24 10:50:39;;;;;;;19.83;7.10;;;;;;;18.02;25.87;100842.72;5030126;28;20122;-72
2022/03/24 10:53:13;;;;;;;12.50;7.70;;;;;;;17.80;26.19;100798.03;5030557;28;20499;-73
2022/03/24 10:55:50;;;;;;;11.43;6.70;;;;;;;17.95;25.08;100826.97;5030512;28;20025;-72
2022/03/24 10:58:31;;;;;;;11.13;7.55;;;;;;;18.22;25.81;100829.91;5030187;28;20061;-70
2022/03/24 11:01:01;;;;;;;13.90;7.28;;;;;;;18.48;26.16;100824.97;5030493;28;20025;-72
2022/03/24 11:03:27;;;;;;;13.35;7.22;;;;;;;18.36;26.28;100814.38;5030514;28;20079;-71
2022/03/24 11:06:11;;;;;;;12.15;6.57;;;;;;;18.35;24.11;100823.06;5030093;28;20025;-73
2022/03/24 11:08:37;;;;;;;11.90;7.32;;;;;;;18.24;25.31;100783.75;5030803;28;20033;-70
2022/03/24 11:11:08;;;;;;;12.70;6.80;;;;;;;18.15;23.96;100776.69;5034282;28;20052;-70
2022/03/24 11:13:41;;;;;;;15.77;8.27;;;;;;;18.33;24.25;100810.00;5034089;28;20498;-72
2022/03/24 11:16:09;;;;;;;15.73;7.90;;;;;;;18.74;26.04;100806.88;5034035;28;20505;-73
2022/03/24 11:18:36;;;;;;;37.08;11.40;;;;;;;19.04;25.50;100804.53;5034374;28;20036;-73
2022/03/24 11:21:06;;;;;;;11.75;8.02;;;;;;;18.85;23.96;100795.63;5034084;28;20032;-74
2022/03/24 11:23:39;;;;;;;11.90;8.27;;;;;;;18.96;25.23;100799.25;5034060;28;20041;-73